Time;durP1;ratioP1;P1;durP2;ratioP2;P2;SDS_P1;SDS_P2;PMS_P1;PMS_P2;Temp;Humidity;BMP_temperature;BMP_pressure;BME280_temperature;BME280_humidity;BME280_pressure;Samples;Min_cycle;Max_cycle;Signal;HPM_P1;HPM_P2
2022/11/07 16:47:04;;;;;;;42.63;4.78;;;;;;;12.63;63.00;96443.00;5106466;27;20144;-82
2022/11/07 16:49:32;;;;;;;42.38;5.18;;;;;;;12.30;63.93;96429.19;5104478;28;20051;-79
2022/11/07 16:51:59;;;;;;;62.95;5.93;;;;;;;11.98;65.18;96433.31;5104556;28;20134;-78
2022/11/07 16:54:25;;;;;;;108.65;26.52;;;;;;;11.72;66.32;96442.31;5103907;28;20047;-77
2022/11/07 16:56:53;;;;;;;81.35;6.68;;;;;;;11.49;67.49;96425.31;5104352;28;20040;-78
2022/11/07 16:59:21;;;;;;;120.82;21.60;;;;;;;11.29;68.49;96422.44;5103985;28;20052;-77
2022/11/07 17:01:49;;;;;;;58.53;6.38;;;;;;;11.10;69.13;96425.47;5104115;28;20097;-79
2022/11/07 17:04:17;;;;;;;63.45;7.30;;;;;;;10.97;70.48;96427.22;5103542;28;20538;-75
2022/11/07 17:06:46;;;;;;;95.25;7.85;;;;;;;10.86;70.97;96425.94;5104056;28;20047;-76
2022/11/07 17:09:15;;;;;;;63.13;7.32;;;;;;;10.75;71.98;96419.97;5103962;28;20058;-78
2022/11/07 17:11:42;;;;;;;86.53;10.52;;;;;;;10.65;72.65;96417.56;5104587;27;20048;-76
2022/11/07 17:14:08;;;;;;;69.22;7.70;;;;;;;10.55;73.28;96415.13;5103539;27;20055;-77
2022/11/07 17:16:35;;;;;;;52.67;7.85;;;;;;;10.46;73.90;96417.81;5104113;27;20044;-78
2022/11/07 17:19:04;;;;;;;30.30;7.20;;;;;;;10.37;74.42;96414.25;5103519;27;20417;-76
2022/11/07 17:21:35;;;;;;;12.98;5.43;;;;;;;10.31;74.61;96420.97;5103991;27;20043;-77
2022/11/07 17:24:01;;;;;;;24.02;6.63;;;;;;;10.26;74.93;96423.81;5103754;27;20121;-76
2022/11/07 17:26:30;;;;;;;69.38;8.00;;;;;;;10.17;75.05;96427.25;5103513;27;20406;-77
2022/11/07 17:28:58;;;;;;;73.13;7.13;;;;;;;10.09;75.19;96427.25;5102362;27;20043;-77
2022/11/07 17:31:25;;;;;;;85.25;10.40;;;;;;;10.02;75.47;96424.94;5101088;28;20048;-79
2022/11/07 17:33:51;;;;;;;56.78;8.35;;;;;;;9.95;75.81;96430.03;5103722;27;20048;-76
2022/11/07 17:36:26;;;;;;;72.15;9.90;;;;;;;9.87;76.10;96425.38;5103218;27;20758;-79
2022/11/07 17:38:54;;;;;;;50.13;8.82;;;;;;;9.82;76.41;96422.78;5103947;27;20055;-78
2022/11/07 17:41:21;;;;;;;63.08;9.73;;;;;;;9.76;76.73;96421.28;5102710;27;20040;-78
2022/11/07 17:43:48;;;;;;;63.90;9.55;;;;;;;9.73;76.84;96422.72;5103715;28;20042;-79
2022/11/07 17:46:16;;;;;;;75.35;9.60;;;;;;;9.70;77.14;96427.97;5102863;28;20048;-77
2022/11/07 17:48:43;;;;;;;84.80;13.55;;;;;;;9.62;77.56;96426.81;5103514;28;20036;-80
2022/11/07 17:51:10;;;;;;;132.13;30.50;;;;;;;9.57;77.54;96419.56;5102961;28;20048;-82
2022/11/07 17:53:37;;;;;;;47.38;9.85;;;;;;;9.53;77.79;96432.19;5103263;28;20112;-78
2022/11/07 17:56:05;;;;;;;88.93;27.55;;;;;;;9.52;78.05;96427.06;5102828;28;20493;-80
2022/11/07 18:01:14;;;;;;;135.18;21.40;;;;;;;9.45;78.07;96427.50;5066329;27;20398;-78
2022/11/07 18:03:41;;;;;;;86.72;17.85;;;;;;;9.41;78.50;96429.22;5064181;28;20049;-81
2022/11/07 18:06:08;;;;;;;55.50;7.85;;;;;;;9.36;78.62;96432.06;5063420;28;20136;-80
2022/11/07 18:08:35;;;;;;;178.40;64.10;;;;;;;9.33;78.82;96429.94;5064350;28;20044;-80
2022/11/07 18:11:03;;;;;;;61.60;6.88;;;;;;;9.28;78.94;96430.06;5063222;28;20849;-81
2022/11/07 18:13:30;;;;;;;108.20;21.48;;;;;;;9.23;78.92;96436.41;5063822;28;20521;-79
2022/11/07 18:15:56;;;;;;;90.95;17.80;;;;;;;9.17;78.84;96434.13;5063765;28;20048;-79
2022/11/07 18:18:25;;;;;;;68.38;7.18;;;;;;;9.15;78.86;96429.81;5063480;28;20049;-81
2022/11/07 18:20:52;;;;;;;149.82;57.15;;;;;;;9.10;79.03;96423.69;5063821;28;20048;-78
2022/11/07 18:23:19;;;;;;;88.55;10.15;;;;;;;9.04;79.13;96417.56;5063218;28;20059;-79
2022/11/07 18:25:45;;;;;;;101.57;26.98;;;;;;;9.08;79.02;96428.59;5063693;28;20041;-77
2022/11/07 18:28:12;;;;;;;121.35;42.58;;;;;;;8.98;79.11;96424.22;5063181;28;20583;-77
2022/11/07 18:30:38;;;;;;;108.20;21.92;;;;;;;8.97;79.28;96417.16;5063574;28;20045;-82
2022/11/07 18:33:05;;;;;;;97.88;10.30;;;;;;;8.94;79.37;96414.28;5063190;28;20055;-78
2022/11/07 18:35:33;;;;;;;114.53;12.15;;;;;;;8.87;79.03;96417.41;5063398;28;20397;-79
2022/11/07 18:37:59;;;;;;;100.38;9.90;;;;;;;8.91;79.61;96412.97;5063008;28;20094;-78
2022/11/07 18:40:26;;;;;;;61.53;7.82;;;;;;;8.89;79.49;96404.34;5063007;28;20044;-77
2022/11/07 18:42:52;;;;;;;93.22;16.33;;;;;;;8.90;79.47;96400.50;5062867;28;20040;-78
2022/11/07 18:45:18;;;;;;;138.55;22.63;;;;;;;8.88;79.44;96413.59;5062914;28;20048;-80
2022/11/07 18:47:45;;;;;;;167.77;39.50;;;;;;;8.90;79.07;96411.38;5063253;28;20049;-79
2022/11/07 18:50:12;;;;;;;85.30;8.57;;;;;;;8.89;79.54;96413.28;5062818;28;20068;-79
2022/11/07 18:52:40;;;;;;;110.25;16.10;;;;;;;8.82;79.59;96409.34;5062877;28;20159;-79
2022/11/07 18:55:08;;;;;;;82.18;32.78;;;;;;;8.79;79.35;96410.00;5062834;28;20037;-81
2022/11/07 18:57:35;;;;;;;108.82;31.08;;;;;;;8.77;79.71;96412.19;5063146;28;20063;-78
2022/11/07 19:00:03;;;;;;;54.03;16.88;;;;;;;8.78;79.36;96413.81;5062481;28;20053;-79
2022/11/07 19:02:32;;;;;;;121.30;35.95;;;;;;;8.77;79.35;96415.72;5062099;28;20603;-79
2022/11/07 19:04:59;;;;;;;73.38;9.45;;;;;;;8.72;79.90;96415.84;5062842;28;20490;-79
2022/11/07 19:07:25;;;;;;;97.55;13.15;;;;;;;8.65;79.99;96407.28;5062421;28;20549;-79
2022/11/07 19:09:53;;;;;;;69.22;7.55;;;;;;;8.65;79.66;96403.78;5062578;28;20071;-77
2022/11/07 19:12:20;;;;;;;92.38;9.98;;;;;;;8.65;80.04;96409.19;5049787;28;20057;-78
2022/11/07 19:14:46;;;;;;;126.43;20.13;;;;;;;8.67;79.88;96409.72;5049493;28;20430;-78
2022/11/07 19:17:13;;;;;;;83.18;8.65;;;;;;;8.66;80.28;96417.03;5048869;28;20052;-77
2022/11/07 19:19:39;;;;;;;59.08;7.95;;;;;;;8.58;80.37;96415.84;5049608;28;20056;-80
2022/11/07 19:22:06;;;;;;;58.22;8.25;;;;;;;8.57;80.24;96408.81;5047684;28;20053;-78
2022/11/07 19:24:32;;;;;;;57.67;6.80;;;;;;;8.56;80.14;96412.66;5049543;28;20041;-78
2022/11/07 19:27:00;;;;;;;92.80;7.68;;;;;;;8.49;80.43;96420.38;5049079;28;20051;-80
2022/11/07 19:29:27;;;;;;;75.97;8.70;;;;;;;8.48;80.49;96420.69;5048998;28;20060;-78
2022/11/07 19:31:54;;;;;;;77.25;7.93;;;;;;;8.45;80.59;96424.00;5049151;28;20045;-78
2022/11/07 19:34:20;;;;;;;80.93;8.27;;;;;;;8.40;80.73;96415.94;5048617;28;20045;-81
2022/11/07 19:36:47;;;;;;;77.95;8.98;;;;;;;8.35;80.82;96420.38;5048885;28;20641;-79
2022/11/07 19:39:13;;;;;;;97.57;8.85;;;;;;;8.31;80.97;96421.25;5048675;28;20045;-78
2022/11/07 19:41:40;;;;;;;66.10;7.32;;;;;;;8.24;81.32;96420.84;5048875;28;20049;-80
2022/11/07 19:44:08;;;;;;;85.72;9.30;;;;;;;8.20;81.45;96414.44;5048552;28;20053;-81
2022/11/07 19:46:34;;;;;;;159.85;32.92;;;;;;;8.20;81.33;96430.72;5048924;28;20056;-80
2022/11/07 19:49:01;;;;;;;173.30;63.00;;;;;;;8.13;81.28;96424.84;5048722;28;20397;-79
2022/11/07 19:51:27;;;;;;;105.60;8.95;;;;;;;8.12;81.44;96424.06;5048655;28;20045;-80
2022/11/07 19:53:55;;;;;;;88.72;9.25;;;;;;;8.07;81.92;96427.66;5048455;28;20053;-78
2022/11/07 19:56:23;;;;;;;66.18;7.78;;;;;;;8.04;82.47;96417.44;5048458;28;20048;-82
2022/11/07 19:58:49;;;;;;;94.18;8.93;;;;;;;8.06;82.17;96420.63;5048304;28;20624;-82
2022/11/07 20:01:19;;;;;;;33.75;8.57;;;;;;;8.05;82.42;96424.47;5048263;28;20053;-81
2022/11/07 20:03:46;;;;;;;54.65;7.53;;;;;;;8.07;82.13;96418.72;5048473;28;20047;-80
2022/11/07 20:06:14;;;;;;;67.75;8.55;;;;;;;8.08;82.37;96418.41;5048176;28;20057;-79
2022/11/07 20:08:44;;;;;;;64.40;8.02;;;;;;;8.06;82.25;96422.56;5048095;28;20052;-83
2022/11/07 20:11:12;;;;;;;116.47;21.05;;;;;;;8.08;82.31;96423.84;5046472;28;20048;-81
2022/11/07 20:13:39;;;;;;;80.60;12.30;;;;;;;8.13;82.09;96431.09;5044917;28;20126;-78
2022/11/07 20:16:07;;;;;;;20.27;6.00;;;;;;;8.11;82.34;96428.69;5047151;28;20044;-78
2022/11/07 20:18:36;;;;;;;24.45;6.80;;;;;;;8.13;81.89;96424.84;5047233;28;20099;-81
2022/11/07 20:21:05;;;;;;;48.42;7.03;;;;;;;8.15;81.89;96431.59;5046947;28;20048;-79
2022/11/07 20:23:31;;;;;;;65.15;7.65;;;;;;;8.11;82.27;96434.09;5044972;28;20163;-81
2022/11/07 20:25:58;;;;;;;69.82;8.55;;;;;;;8.13;82.33;96438.41;5044782;28;20059;-78
2022/11/07 20:28:25;;;;;;;55.55;7.70;;;;;;;8.10;82.18;96448.78;5046538;28;20045;-79
2022/11/07 20:30:54;;;;;;;59.78;6.45;;;;;;;8.07;82.42;96437.72;5047345;28;20044;-81
2022/11/07 20:33:21;;;;;;;100.07;7.80;;;;;;;8.06;82.59;96445.06;5043420;28;20041;-79
2022/11/07 20:35:59;;;;;;;80.60;7.13;;;;;;;8.08;82.49;96442.03;5048047;28;20045;-78
2022/11/07 20:38:26;;;;;;;36.28;5.93;;;;;;;8.11;82.03;96438.72;5046928;28;20057;-79
2022/11/07 20:40:53;;;;;;;88.97;7.47;;;;;;;8.11;82.32;96438.72;5047525;28;20057;-79
2022/11/07 20:43:19;;;;;;;79.65;7.07;;;;;;;8.11;81.98;96436.81;5047148;28;20048;-78
2022/11/07 20:45:46;;;;;;;89.70;9.73;;;;;;;8.06;82.24;96439.63;5047724;28;20059;-80
2022/11/07 20:48:12;;;;;;;91.40;7.15;;;;;;;8.09;81.78;96435.50;5047344;28;20060;-78
2022/11/07 20:50:39;;;;;;;86.88;6.47;;;;;;;8.11;82.07;96441.44;5047479;28;20530;-82
2022/11/07 20:53:07;;;;;;;72.30;6.32;;;;;;;8.11;82.05;96444.16;5047111;28;20507;-79
2022/11/07 20:55:38;;;;;;;63.53;6.40;;;;;;;8.11;81.77;96439.53;5047639;28;20048;-79
2022/11/07 20:58:05;;;;;;;44.72;5.45;;;;;;;8.09;82.03;96441.75;5047340;28;20053;-78
2022/11/07 21:00:31;;;;;;;79.93;5.97;;;;;;;8.04;81.86;96443.75;5047398;28;20415;-79
2022/11/07 21:02:58;;;;;;;135.15;30.40;;;;;;;8.04;81.85;96439.13;5047281;28;20060;-79
2022/11/07 21:05:24;;;;;;;64.25;5.82;;;;;;;8.06;81.65;96439.63;5047209;28;20059;-82
2022/11/07 21:07:51;;;;;;;42.20;4.22;;;;;;;8.09;80.80;96441.75;5047250;28;20049;-82
2022/11/07 21:10:19;;;;;;;61.85;5.15;;;;;;;8.09;80.94;96441.75;5047157;28;20049;-83
2022/11/07 21:12:45;;;;;;;95.60;15.02;;;;;;;8.09;81.15;96436.31;5046957;28;20049;-79
2022/11/07 21:15:12;;;;;;;60.63;5.13;;;;;;;8.11;81.00;96428.69;5046913;28;20579;-78
2022/11/07 21:17:39;;;;;;;56.05;4.82;;;;;;;8.13;81.18;96430.28;5047233;28;20045;-77
2022/11/07 21:20:08;;;;;;;44.95;4.60;;;;;;;8.16;81.11;96440.53;5046765;28;20053;-79
2022/11/07 21:22:35;;;;;;;59.42;5.03;;;;;;;8.16;81.35;96429.69;5046715;28;20048;-78
2022/11/07 21:25:03;;;;;;;36.83;4.82;;;;;;;8.15;81.15;96434.31;5046867;28;20053;-81
2022/11/07 21:27:35;;;;;;;65.05;5.07;;;;;;;8.16;81.02;96435.13;5047268;28;20052;-78
2022/11/07 21:30:03;;;;;;;50.47;4.80;;;;;;;8.15;81.36;96433.53;5046574;28;20053;-83
2022/11/07 21:32:30;;;;;;;46.72;4.97;;;;;;;8.15;81.12;96434.31;5047314;28;20059;-80
2022/11/07 21:34:57;;;;;;;24.98;3.85;;;;;;;8.13;81.28;96430.28;5047068;28;20045;-76
2022/11/07 21:37:23;;;;;;;33.05;4.82;;;;;;;8.10;81.21;96437.94;5046797;28;20397;-77
2022/11/07 21:39:50;;;;;;;19.58;4.22;;;;;;;8.10;81.40;96437.13;5046932;28;20041;-76
2022/11/07 21:42:17;;;;;;;21.75;4.72;;;;;;;8.10;80.99;96439.84;5046138;28;20059;-76
2022/11/07 21:44:44;;;;;;;29.88;4.65;;;;;;;8.11;81.13;96442.25;5046850;28;20064;-77
2022/11/07 21:47:11;;;;;;;34.10;4.35;;;;;;;8.06;80.74;96431.50;5046442;28;20056;-80
2022/11/07 21:49:38;;;;;;;50.15;4.75;;;;;;;8.06;80.90;96436.91;5046875;28;20048;-81
2022/11/07 21:52:05;;;;;;;56.08;5.28;;;;;;;8.03;80.60;96432.06;5046243;28;20048;-76
2022/11/07 21:54:31;;;;;;;47.42;4.63;;;;;;;7.99;80.80;96436.50;5046541;28;20060;-77
2022/11/07 21:56:59;;;;;;;34.40;4.05;;;;;;;7.97;80.84;96438.69;5046686;28;20537;-78
2022/11/07 21:59:26;;;;;;;86.70;27.35;;;;;;;7.94;81.04;96433.91;5046279;28;20056;-77
2022/11/07 22:01:55;;;;;;;116.50;21.88;;;;;;;7.85;81.31;96441.09;5046474;28;20049;-76
2022/11/07 22:04:21;;;;;;;114.72;21.83;;;;;;;7.82;81.69;96444.41;5047081;28;20063;-78
2022/11/07 22:06:50;;;;;;;66.65;4.70;;;;;;;7.78;81.99;96440.69;5050098;28;20411;-77
2022/11/07 22:09:19;;;;;;;69.75;5.05;;;;;;;7.71;82.14;96441.06;5049596;28;20045;-80
2022/11/07 22:11:46;;;;;;;49.55;4.55;;;;;;;7.65;81.93;96441.44;5049839;28;20045;-78
2022/11/07 22:14:13;;;;;;;45.42;4.45;;;;;;;7.62;82.39;96440.13;5049537;28;20052;-79
2022/11/07 22:16:40;;;;;;;60.03;4.70;;;;;;;7.59;82.37;96438.81;5049933;28;20048;-79
2022/11/07 22:19:08;;;;;;;29.20;3.75;;;;;;;7.60;82.54;96447.75;5049749;28;20056;-79
2022/11/07 22:21:34;;;;;;;46.90;4.78;;;;;;;7.59;82.67;96444.25;5049816;28;20412;-80
2022/11/07 22:24:01;;;;;;;34.15;7.05;;;;;;;7.53;82.15;96440.00;5049843;28;20504;-81
2022/11/07 22:26:28;;;;;;;34.75;3.47;;;;;;;7.47;82.27;96441.19;5049557;28;20041;-81
2022/11/07 22:28:55;;;;;;;36.30;3.88;;;;;;;7.43;82.71;96434.75;5049856;28;20041;-79
2022/11/07 22:31:24;;;;;;;25.80;3.42;;;;;;;7.39;82.39;96439.16;5049299;28;20071;-80
2022/11/07 22:33:51;;;;;;;38.28;4.20;;;;;;;7.33;82.29;96445.75;5049965;28;20041;-82
2022/11/07 22:36:20;;;;;;;42.22;4.35;;;;;;;7.27;82.25;96441.50;5049384;28;20051;-80
2022/11/07 22:38:46;;;;;;;32.78;4.28;;;;;;;7.19;82.56;96440.25;5049548;28;20052;-78
2022/11/07 22:41:15;;;;;;;45.33;4.72;;;;;;;7.13;82.98;96437.94;5049005;28;20053;-82
2022/11/07 22:43:42;;;;;;;40.30;3.95;;;;;;;7.06;83.38;96438.31;5049637;28;20041;-82
2022/11/07 22:46:12;;;;;;;45.00;3.97;;;;;;;6.97;83.74;96434.63;5049895;28;20053;-79
2022/11/07 22:48:39;;;;;;;28.13;3.58;;;;;;;6.92;84.28;96432.81;5053792;28;20049;-78
2022/11/07 22:51:08;;;;;;;25.63;3.95;;;;;;;6.90;84.33;96432.31;5052911;28;20049;-78
2022/11/07 22:53:37;;;;;;;26.58;3.80;;;;;;;6.90;84.67;96435.00;5053351;28;20541;-80
2022/11/07 22:56:08;;;;;;;24.88;4.03;;;;;;;6.86;84.98;96428.56;5053162;28;20060;-78
2022/11/07 22:58:34;;;;;;;75.10;18.70;;;;;;;6.84;85.15;96432.66;5053268;28;20408;-78
2022/11/07 23:01:01;;;;;;;27.23;4.10;;;;;;;6.81;85.27;96434.03;5052962;28;20041;-77
2022/11/07 23:03:27;;;;;;;19.65;4.13;;;;;;;6.77;85.42;96424.91;5053162;28;20041;-79
2022/11/07 23:05:54;;;;;;;23.55;4.20;;;;;;;6.74;85.10;96422.78;5053133;28;20435;-77
2022/11/07 23:08:20;;;;;;;16.88;5.03;;;;;;;6.75;85.00;96424.41;5052720;28;20047;-77
2022/11/07 23:10:57;;;;;;;27.35;4.40;;;;;;;6.71;84.58;96424.16;5053081;28;20045;-77
2022/11/07 23:13:24;;;;;;;33.97;5.10;;;;;;;6.65;84.65;96424.53;5032641;28;20037;-77
2022/11/07 23:15:50;;;;;;;29.90;4.30;;;;;;;6.63;84.50;96415.88;5032974;28;20052;-80
2022/11/07 23:18:17;;;;;;;45.25;5.30;;;;;;;6.57;84.44;96417.03;5032647;28;20048;-76
2022/11/07 23:23:28;;;;;;;8.32;4.00;;;;;;;6.47;84.77;96416.09;5032599;28;20142;-79
2022/11/07 23:25:54;;;;;;;7.32;3.63;;;;;;;6.46;85.44;96411.75;5032720;28;20041;-80
2022/11/07 23:28:22;;;;;;;6.93;3.80;;;;;;;6.46;85.93;96410.97;5032273;28;20680;-76
2022/11/07 23:30:50;;;;;;;7.18;3.65;;;;;;;6.45;86.34;96407.47;5032772;28;20065;-77
2022/11/07 23:33:17;;;;;;;6.47;3.40;;;;;;;6.43;86.77;96406.94;5032068;28;20057;-77
2022/11/07 23:35:43;;;;;;;9.00;4.30;;;;;;;6.42;86.93;96397.22;5032672;28;20046;-77
2022/11/07 23:38:10;;;;;;;35.63;4.93;;;;;;;6.44;86.79;96408.56;5032122;28;20050;-79
2022/11/07 23:40:36;;;;;;;42.17;4.93;;;;;;;6.44;86.67;96402.34;5033310;28;20049;-77
2022/11/07 23:43:03;;;;;;;8.65;3.90;;;;;;;6.42;86.35;96399.09;5051684;28;20681;-77
2022/11/07 23:51:02;;;;;;;21.33;4.63;;;;;;;6.32;85.42;96400.06;5051984;28;20056;-84
2022/11/07 23:56:14;;;;;;;38.45;4.85;;;;;;;6.26;86.17;96399.31;5051809;28;20056;-79
